Time;durP1;ratioP1;P1;durP2;ratioP2;P2;SDS_P1;SDS_P2;PMS_P1;PMS_P2;Temp;Humidity;BMP_temperature;BMP_pressure;BME280_temperature;BME280_humidity;BME280_pressure;Samples;Min_cycle;Max_cycle;Signal;HPM_P1;HPM_P2
2020/12/19 00:02:14;;;;;;;85.70;42.13;;;;;;;4.53;79.21;101795.52;1735511;80;27597;-77
2020/12/19 00:04:42;;;;;;;76.80;40.65;;;;;;;4.52;79.29;101791.67;1710901;79;26452;-77
2020/12/19 00:07:09;;;;;;;83.80;44.27;;;;;;;4.48;79.32;101787.09;1792479;79;25754;-77
2020/12/19 00:09:37;;;;;;;83.95;43.65;;;;;;;4.40;79.20;101784.20;1744336;80;25827;-77
2020/12/19 00:12:05;;;;;;;87.42;44.45;;;;;;;4.36;79.30;101788.52;1741416;79;26128;-77
2020/12/19 00:14:33;;;;;;;91.05;45.15;;;;;;;4.32;79.36;101785.24;1745448;79;27888;-77
2020/12/19 00:17:00;;;;;;;95.95;48.08;;;;;;;4.28;79.30;101782.47;1770867;79;26320;-77
2020/12/19 00:19:28;;;;;;;98.07;47.95;;;;;;;4.22;79.29;101781.61;1764717;80;25822;-77
2020/12/19 00:21:55;;;;;;;95.92;48.35;;;;;;;4.19;79.32;101778.36;1720938;79;25681;-77
2020/12/19 00:24:23;;;;;;;94.50;48.25;;;;;;;4.12;79.18;101774.01;1741662;79;25962;-77
2020/12/19 00:26:50;;;;;;;92.57;45.45;;;;;;;4.07;79.16;101780.13;1765052;79;27525;-77
2020/12/19 00:29:17;;;;;;;88.92;44.33;;;;;;;4.01;79.13;101775.30;1763263;79;26508;-77
2020/12/19 00:31:45;;;;;;;90.00;44.98;;;;;;;3.95;79.11;101773.59;1742573;79;25803;-77
2020/12/19 00:34:12;;;;;;;81.97;42.98;;;;;;;3.90;79.00;101771.28;1746018;79;26503;-77
2020/12/19 00:36:40;;;;;;;84.15;42.38;;;;;;;3.83;78.95;101769.57;1760247;79;25827;-77
2020/12/19 00:39:07;;;;;;;81.65;41.30;;;;;;;3.76;78.83;101774.13;1765619;80;27259;-77
2020/12/19 00:41:34;;;;;;;80.12;40.28;;;;;;;3.70;78.88;101770.12;1741629;79;25859;-77
2020/12/19 00:44:02;;;;;;;85.97;42.93;;;;;;;3.70;78.94;101763.49;1709044;79;25845;-77
2020/12/19 00:46:30;;;;;;;73.83;40.43;;;;;;;3.67;78.69;101769.52;1755207;80;25873;-76
2020/12/19 00:48:57;;;;;;;78.85;40.73;;;;;;;3.61;78.57;101768.64;1755009;79;26067;-77
2020/12/19 00:51:25;;;;;;;75.17;38.90;;;;;;;3.57;78.48;101769.33;1726026;81;27522;-77
2020/12/19 00:53:52;;;;;;;81.40;40.45;;;;;;;3.54;78.34;101770.05;1730123;79;25765;-76
2020/12/19 00:56:23;;;;;;;78.52;40.85;;;;;;;3.50;78.30;101773.89;1754011;79;25834;-77
2020/12/19 00:58:53;;;;;;;81.25;40.85;;;;;;;3.44;78.24;101764.60;1755361;79;25780;-77
2020/12/19 01:01:24;;;;;;;73.13;38.43;;;;;;;3.40;78.36;101769.73;1730245;80;25851;-77
2020/12/19 01:03:58;;;;;;;81.05;39.83;;;;;;;3.38;78.34;101769.50;1735099;80;27580;-77
2020/12/19 01:06:27;;;;;;;77.87;40.80;;;;;;;3.36;78.48;101776.71;1754148;80;26497;-77
2020/12/19 01:08:58;;;;;;;75.92;41.08;;;;;;;3.32;78.54;101776.07;1756374;79;26300;-77
2020/12/19 01:11:27;;;;;;;81.53;41.58;;;;;;;3.31;78.60;101763.80;1732172;79;25849;-77
2020/12/19 01:13:56;;;;;;;77.85;39.70;;;;;;;3.30;78.61;101762.09;1757086;79;26431;-77
2020/12/19 01:16:29;;;;;;;81.42;43.00;;;;;;;3.29;78.66;101767.05;1773676;79;28408;-77
2020/12/19 01:18:58;;;;;;;81.75;42.20;;;;;;;3.29;78.78;101770.16;1758946;79;25398;-77
2020/12/19 01:21:28;;;;;;;82.40;43.50;;;;;;;3.30;78.90;101767.86;1752671;80;25757;-76
2020/12/19 01:23:56;;;;;;;80.75;43.30;;;;;;;3.30;79.05;101766.54;1730717;81;25829;-77
2020/12/19 01:26:25;;;;;;;75.52;42.15;;;;;;;3.34;79.14;101758.73;1738186;79;26312;-77
2020/12/19 01:28:52;;;;;;;83.82;42.00;;;;;;;3.38;79.29;101755.76;1755534;79;27065;-77
2020/12/19 01:31:22;;;;;;;87.60;43.73;;;;;;;3.42;79.36;101762.52;1731480;79;26366;-76
2020/12/19 01:33:51;;;;;;;85.00;44.55;;;;;;;3.42;79.14;101752.42;1729447;81;25833;-76
2020/12/19 01:36:22;;;;;;;86.75;42.88;;;;;;;3.39;78.89;101755.28;1759009;79;25793;-76
2020/12/19 01:38:51;;;;;;;83.07;43.90;;;;;;;3.35;78.93;101758.65;1752658;79;25697;-77
2020/12/19 01:41:22;;;;;;;83.15;43.87;;;;;;;3.33;78.95;101759.71;1731534;79;27539;-76
2020/12/19 01:43:57;;;;;;;91.12;47.08;;;;;;;3.29;78.66;101758.25;1761629;79;26131;-76
2020/12/19 01:46:52;;;;;;;86.37;41.75;;;;;;;3.22;78.31;101754.34;1767028;79;25864;-76
2020/12/19 01:49:23;;;;;;;80.22;41.40;;;;;;;3.15;78.29;101748.65;1758280;80;25786;-76
2020/12/19 01:52:03;;;;;;;78.75;41.45;;;;;;;3.11;78.14;101745.39;1798468;79;25715;-77
2020/12/19 01:54:32;;;;;;;82.70;43.20;;;;;;;3.01;78.12;101739.55;1731517;81;25744;-77
2020/12/19 01:57:02;;;;;;;81.15;43.15;;;;;;;2.95;78.08;101746.11;1746490;80;27526;-76
2020/12/19 01:59:32;;;;;;;89.30;44.60;;;;;;;2.93;78.24;101744.56;1727167;82;26529;-77
2020/12/19 02:02:08;;;;;;;91.85;44.73;;;;;;;2.89;78.10;101741.27;1734815;82;26397;-76
2020/12/19 02:04:35;;;;;;;79.20;42.73;;;;;;;2.84;78.06;101742.09;1691476;83;25941;-77
2020/12/19 02:07:05;;;;;;;87.50;43.65;;;;;;;2.79;77.94;101744.68;1675386;83;26429;-76
2020/12/19 02:09:38;;;;;;;89.30;45.48;;;;;;;2.73;77.68;101741.15;1699663;82;28296;-76
2020/12/19 02:12:08;;;;;;;87.10;44.80;;;;;;;2.68;77.76;101737.50;1731954;81;25991;-77
2020/12/19 02:14:37;;;;;;;92.67;44.93;;;;;;;2.64;77.90;101733.86;1707975;82;25936;-76
2020/12/19 02:17:08;;;;;;;90.92;45.23;;;;;;;2.60;78.04;101737.20;1694232;82;26089;-76
2020/12/19 02:19:37;;;;;;;92.95;43.80;;;;;;;2.55;78.28;101731.39;1722520;82;25801;-77
2020/12/19 02:22:07;;;;;;;90.67;42.83;;;;;;;2.51;78.23;101731.23;1734383;82;27536;-76
2020/12/19 02:24:34;;;;;;;81.95;40.17;;;;;;;2.48;78.40;101730.11;1666189;82;25864;-76
2020/12/19 02:27:02;;;;;;;80.85;40.17;;;;;;;2.45;78.38;101727.70;1703983;82;25876;-76
2020/12/19 02:29:32;;;;;;;75.17;35.35;;;;;;;2.40;78.40;101723.20;1694257;82;26307;-77
2020/12/19 02:32:02;;;;;;;73.85;35.98;;;;;;;2.40;78.53;101731.61;1735345;82;25792;-77
2020/12/19 02:34:30;;;;;;;74.55;36.48;;;;;;;2.39;78.50;101731.25;1675303;83;28126;-76
2020/12/19 02:36:57;;;;;;;66.33;34.88;;;;;;;2.37;78.46;101735.80;1704249;82;26096;-77
2020/12/19 02:39:25;;;;;;;68.47;33.23;;;;;;;2.33;78.27;101725.92;1732549;82;25830;-77
2020/12/19 02:41:52;;;;;;;61.45;32.95;;;;;;;2.29;78.30;101729.23;1705913;82;26378;-76
2020/12/19 02:44:20;;;;;;;62.58;32.20;;;;;;;2.25;78.36;101727.77;1702253;82;25779;-77
2020/12/19 02:46:49;;;;;;;63.55;32.28;;;;;;;2.24;78.48;101731.38;1698331;82;27075;-77
2020/12/19 02:49:16;;;;;;;65.67;32.38;;;;;;;2.22;78.58;101728.47;1730262;82;26152;-76
2020/12/19 02:51:44;;;;;;;67.53;33.10;;;;;;;2.22;78.70;101725.32;1679980;83;26564;-76
2020/12/19 02:54:11;;;;;;;62.55;32.88;;;;;;;2.23;78.75;101732.31;1695207;81;26392;-76
2020/12/19 02:56:39;;;;;;;61.42;31.62;;;;;;;2.22;78.76;101726.64;1711848;81;25851;-77
2020/12/19 02:59:06;;;;;;;70.00;35.15;;;;;;;2.19;78.82;101720.73;1731568;81;28485;-76
2020/12/19 03:01:33;;;;;;;66.40;33.85;;;;;;;2.13;78.77;101717.20;1696575;82;25693;-77
2020/12/19 03:04:01;;;;;;;56.58;30.02;;;;;;;2.05;78.77;101716.38;1691119;82;25891;-77
2020/12/19 03:06:28;;;;;;;58.80;32.93;;;;;;;1.98;78.76;101708.53;1709815;82;26440;-76
2020/12/19 03:08:56;;;;;;;59.80;30.25;;;;;;;1.96;78.94;101709.11;1731663;81;25767;-77
2020/12/19 03:11:23;;;;;;;59.05;32.63;;;;;;;1.95;78.86;101701.27;1697268;82;28627;-77
2020/12/19 03:13:51;;;;;;;58.52;31.25;;;;;;;1.94;78.74;101704.41;1701953;82;25832;-76
2020/12/19 03:16:18;;;;;;;61.58;30.95;;;;;;;1.94;78.79;101696.48;1710357;82;25868;-76
2020/12/19 03:18:46;;;;;;;64.37;32.45;;;;;;;1.93;78.78;101700.52;1736184;82;26176;-77
2020/12/19 03:21:13;;;;;;;77.37;33.85;;;;;;;1.94;78.86;101706.20;1686274;81;26660;-77
2020/12/19 03:23:42;;;;;;;72.47;35.25;;;;;;;1.86;78.73;101704.55;1700657;82;28533;-77
2020/12/19 03:26:09;;;;;;;77.72;36.20;;;;;;;1.74;78.39;101704.90;1706465;83;26561;-76
2020/12/19 03:28:36;;;;;;;75.75;37.05;;;;;;;1.56;78.14;101706.97;1736088;81;25782;-76
2020/12/19 03:31:04;;;;;;;70.52;36.15;;;;;;;1.55;78.48;101701.34;1662157;82;25783;-76
2020/12/19 03:33:31;;;;;;;99.75;49.20;;;;;;;1.54;78.30;101702.73;1685654;82;26485;-77
2020/12/19 03:35:58;;;;;;;117.72;56.13;;;;;;;1.51;78.52;101699.85;1701237;81;28272;-76
2020/12/19 03:38:26;;;;;;;178.68;90.40;;;;;;;1.52;78.91;101700.67;1736093;81;26221;-76
2020/12/19 03:40:53;;;;;;;155.12;79.17;;;;;;;1.52;79.18;101697.56;1686735;81;25898;-77
2020/12/19 03:43:21;;;;;;;122.67;59.88;;;;;;;1.56;79.34;101695.09;1697486;82;25913;-77
2020/12/19 03:45:48;;;;;;;103.62;54.58;;;;;;;1.63;79.36;101698.17;1709317;82;25800;-76
2020/12/19 03:48:15;;;;;;;84.47;41.30;;;;;;;1.65;79.00;101694.13;1735765;81;27578;-77
2020/12/19 03:50:43;;;;;;;74.15;37.23;;;;;;;1.62;78.80;101686.39;1694377;82;25885;-76
2020/12/19 03:53:10;;;;;;;73.97;35.73;;;;;;;1.64;78.81;101695.06;1691842;82;25632;-76
2020/12/19 03:55:38;;;;;;;71.35;38.30;;;;;;;1.63;78.67;101687.61;1695106;82;25855;-77
2020/12/19 03:58:05;;;;;;;76.17;38.33;;;;;;;1.61;78.77;101687.33;1700401;82;25912;-77
2020/12/19 04:00:32;;;;;;;92.42;47.13;;;;;;;1.62;78.83;101684.61;1674841;83;28446;-77
2020/12/19 04:03:00;;;;;;;95.25;47.90;;;;;;;1.65;78.96;101682.24;1649726;83;25779;-76
2020/12/19 04:05:27;;;;;;;87.75;44.45;;;;;;;1.68;79.23;101690.80;1655226;84;25917;-76
2020/12/19 04:07:54;;;;;;;77.40;39.92;;;;;;;1.71;79.30;101683.14;1681612;84;26141;-77
2020/12/19 04:10:22;;;;;;;77.37;40.30;;;;;;;1.76;79.45;101688.94;1620985;84;25945;-77
2020/12/19 04:12:49;;;;;;;73.28;40.17;;;;;;;1.77;79.46;101691.50;1653555;84;27519;-76
2020/12/19 04:15:22;;;;;;;76.72;38.45;;;;;;;1.78;79.43;101685.25;1633140;84;25754;-77
2020/12/19 04:17:46;;;;;;;78.72;38.83;;;;;;;1.79;79.40;101686.95;1683384;84;25943;-77
2020/12/19 04:20:13;;;;;;;75.97;37.98;;;;;;;1.80;79.40;101689.09;1649363;84;26241;-76
2020/12/19 04:22:40;;;;;;;72.58;36.03;;;;;;;1.79;79.16;101686.95;1640758;84;25870;-76
2020/12/19 04:25:09;;;;;;;81.17;39.60;;;;;;;1.77;79.15;101684.05;1652759;84;27386;-76
2020/12/19 04:27:38;;;;;;;78.12;40.48;;;;;;;1.76;79.30;101681.87;1682966;84;25782;-77
2020/12/19 04:30:08;;;;;;;76.02;39.30;;;;;;;1.76;79.33;101679.70;1639313;84;25785;-76
2020/12/19 04:32:36;;;;;;;82.02;38.90;;;;;;;1.77;79.48;101674.80;1665431;84;26123;-76
2020/12/19 04:35:05;;;;;;;75.25;39.50;;;;;;;1.79;79.48;101676.86;1656831;84;26554;-77
2020/12/19 04:37:32;;;;;;;80.40;41.10;;;;;;;1.80;79.43;101674.57;1684180;84;27558;-76
2020/12/19 04:40:00;;;;;;;78.40;42.00;;;;;;;1.79;79.42;101678.18;1638836;83;25867;-77
2020/12/19 04:42:27;;;;;;;97.10;45.58;;;;;;;1.77;79.41;101678.30;1634856;85;26506;-77
2020/12/19 04:44:55;;;;;;;85.50;43.40;;;;;;;1.77;79.54;101676.12;1655390;84;25912;-77
2020/12/19 04:47:22;;;;;;;88.90;44.33;;;;;;;1.76;79.59;101671.30;1686086;83;26108;-76
2020/12/19 04:49:50;;;;;;;83.12;43.40;;;;;;;1.78;79.51;101672.52;1638058;84;27536;-76
2020/12/19 04:52:17;;;;;;;90.15;43.68;;;;;;;1.75;79.31;101672.27;1650971;84;26347;-77
2020/12/19 04:54:46;;;;;;;81.72;39.75;;;;;;;1.74;79.22;101680.27;1664675;84;25940;-76
2020/12/19 04:57:18;;;;;;;83.40;42.67;;;;;;;1.71;79.21;101670.76;1673870;84;26347;-76
2020/12/19 04:59:47;;;;;;;85.50;41.10;;;;;;;1.68;79.13;101665.70;1661391;84;26139;-77
2020/12/19 05:02:14;;;;;;;87.57;41.33;;;;;;;1.66;79.34;101673.35;1634933;85;27548;-78
2020/12/19 05:04:43;;;;;;;86.92;42.53;;;;;;;1.52;79.28;101671.63;1641171;85;25958;-76
2020/12/19 05:07:14;;;;;;;98.07;44.70;;;;;;;1.52;79.76;101674.27;1663402;85;25859;-76
2020/12/19 05:09:44;;;;;;;91.05;41.30;;;;;;;1.49;79.82;101666.11;1641832;85;25816;-77
2020/12/19 05:12:13;;;;;;;90.57;43.55;;;;;;;1.51;79.93;101673.45;1630383;86;26383;-76
2020/12/19 05:14:40;;;;;;;88.67;40.80;;;;;;;1.45;80.08;101673.02;1640210;85;27327;-76
2020/12/19 05:17:08;;;;;;;84.60;42.30;;;;;;;1.47;80.29;101671.97;1663350;85;25680;-76
2020/12/19 05:19:35;;;;;;;82.33;42.17;;;;;;;1.46;80.43;101667.63;1620061;86;25880;-76
2020/12/19 05:22:04;;;;;;;78.95;39.30;;;;;;;1.51;80.64;101677.87;1668487;84;26111;-76
2020/12/19 05:24:36;;;;;;;79.53;42.65;;;;;;;1.57;80.76;101682.74;1676546;84;25779;-76
2020/12/19 05:27:09;;;;;;;80.10;41.08;;;;;;;1.61;80.85;101683.38;1641686;84;27777;-76
2020/12/19 05:29:36;;;;;;;81.97;41.65;;;;;;;1.65;80.79;101687.52;1670594;84;33449;-76
2020/12/19 05:32:04;;;;;;;83.55;40.75;;;;;;;1.70;80.80;101687.57;1646928;84;25596;-76
2020/12/19 05:34:31;;;;;;;84.67;42.95;;;;;;;1.76;80.95;101675.27;1675236;84;26494;-76
2020/12/19 05:37:01;;;;;;;81.22;42.85;;;;;;;1.81;80.98;101678.92;1651381;85;26572;-76
2020/12/19 05:39:28;;;;;;;89.58;46.30;;;;;;;1.83;81.05;101679.19;1631916;84;28480;-77
2020/12/19 05:41:56;;;;;;;86.40;44.03;;;;;;;1.88;81.19;101673.59;1639264;84;25993;-76
2020/12/19 05:44:23;;;;;;;94.25;48.00;;;;;;;1.90;81.18;101676.51;1666558;84;25736;-76
2020/12/19 05:46:51;;;;;;;97.90;45.38;;;;;;;1.93;81.31;101678.92;1635712;85;26040;-76
2020/12/19 05:49:19;;;;;;;105.97;50.38;;;;;;;1.96;81.39;101682.69;1664888;85;25394;-76
2020/12/19 05:51:46;;;;;;;114.85;50.85;;;;;;;1.97;81.47;101684.83;1656892;84;27343;-76
2020/12/19 05:54:15;;;;;;;107.90;51.65;;;;;;;1.99;81.50;101689.06;1650223;84;26000;-77
2020/12/19 05:56:48;;;;;;;114.47;47.95;;;;;;;1.97;81.49;101689.64;1651665;86;25486;-76
2020/12/19 05:59:18;;;;;;;94.15;46.45;;;;;;;1.98;81.62;101685.22;1677551;84;26538;-76
2020/12/19 06:01:48;;;;;;;107.63;48.80;;;;;;;1.99;81.74;101690.39;1647524;84;25789;-76
2020/12/19 06:04:17;;;;;;;111.47;47.40;;;;;;;2.00;81.75;101685.48;1654120;84;27546;-77
2020/12/19 06:06:48;;;;;;;108.83;46.20;;;;;;;2.01;81.81;101689.80;1635760;84;25888;-76
2020/12/19 06:09:16;;;;;;;94.30;44.00;;;;;;;1.97;81.69;101692.29;1657163;86;25868;-76
2020/12/19 06:11:58;;;;;;;116.12;42.58;;;;;;;1.94;81.79;101696.48;1652730;84;26073;-76
2020/12/19 06:14:27;;;;;;;94.35;38.80;;;;;;;1.95;81.84;101694.66;1673165;84;25848;-76
2020/12/19 06:16:58;;;;;;;92.53;36.68;;;;;;;1.95;81.92;101692.02;1595514;88;27539;-76
2020/12/19 06:19:27;;;;;;;78.87;34.95;;;;;;;1.90;81.75;101695.00;1587418;87;26465;-77
2020/12/19 06:21:56;;;;;;;90.70;34.58;;;;;;;1.86;81.81;101692.17;1647978;85;26048;-76
2020/12/19 06:24:42;;;;;;;78.37;33.40;;;;;;;1.82;81.91;101690.69;1625990;86;25891;-76
2020/12/19 06:27:27;;;;;;;76.47;33.20;;;;;;;1.78;81.94;101693.17;1642711;84;26092;-76
2020/12/19 06:29:54;;;;;;;76.00;32.60;;;;;;;1.78;82.15;101698.45;1649789;84;27652;-76
2020/12/19 06:32:24;;;;;;;79.95;33.60;;;;;;;1.77;82.16;101699.42;1640561;84;25750;-76
2020/12/19 06:35:06;;;;;;;67.27;31.45;;;;;;;1.78;82.26;101703.73;1671558;84;25882;-76
2020/12/19 06:37:38;;;;;;;73.25;32.55;;;;;;;1.75;82.31;101703.97;1625964;87;25836;-76
2020/12/19 06:40:20;;;;;;;67.53;32.35;;;;;;;1.78;82.43;101706.38;1635170;84;25847;-76
2020/12/19 06:43:11;;;;;;;69.27;32.03;;;;;;;1.80;82.42;101703.63;1651324;84;27330;-76
2020/12/19 06:45:38;;;;;;;83.43;32.43;;;;;;;1.81;82.43;101710.62;1673692;83;25891;-76
2020/12/19 06:48:33;;;;;;;76.90;30.25;;;;;;;1.85;82.54;101703.70;1595912;85;25805;-76
2020/12/19 06:51:09;;;;;;;83.12;33.28;;;;;;;1.92;82.52;101709.42;1830069;77;25763;-76
2020/12/19 06:53:36;;;;;;;81.85;33.02;;;;;;;1.87;82.56;101714.16;1788526;78;25531;-76
2020/12/19 06:56:09;;;;;;;73.95;33.00;;;;;;;1.87;82.61;101720.77;1763702;78;27339;-76
2020/12/19 06:58:36;;;;;;;85.53;35.73;;;;;;;1.90;82.62;101716.61;1786309;78;26502;-77
2020/12/19 07:01:25;;;;;;;81.28;33.63;;;;;;;1.91;82.61;101723.09;1720127;78;25792;-77
2020/12/19 07:03:52;;;;;;;73.05;33.73;;;;;;;1.92;82.63;101726.13;1780931;78;25867;-77
2020/12/19 07:06:19;;;;;;;100.78;37.63;;;;;;;1.95;82.72;101733.83;1764774;78;26013;-77
2020/12/19 07:08:47;;;;;;;87.70;35.48;;;;;;;1.98;82.67;101731.45;1800401;78;27629;-76
2020/12/19 07:11:38;;;;;;;96.00;36.28;;;;;;;1.95;82.48;101729.86;1763041;80;26001;-77
2020/12/19 07:14:08;;;;;;;;;;;;;;;1.86;82.55;101730.98;1786455;78;25853;-77
2020/12/19 07:16:53;;;;;;;75.35;34.03;;;;;;;1.86;82.90;101734.94;1767595;78;25792;-76
2020/12/19 07:19:27;;;;;;;90.92;37.28;;;;;;;1.87;83.06;101736.15;1733577;79;25765;-76
2020/12/19 07:21:57;;;;;;;84.30;34.05;;;;;;;1.88;82.97;101739.64;1797029;78;27526;-77
2020/12/19 07:24:25;;;;;;;83.53;35.23;;;;;;;1.88;83.09;101736.50;1721049;81;25812;-77
2020/12/19 07:26:55;;;;;;;88.10;31.50;;;;;;;1.91;83.35;101741.59;1722115;81;25914;-77
2020/12/19 07:29:23;;;;;;;74.37;32.85;;;;;;;1.99;83.41;101740.59;1696026;82;26326;-77
2020/12/19 07:31:57;;;;;;;65.78;32.73;;;;;;;2.02;83.16;101744.36;1729906;81;30328;-77
2020/12/19 07:34:24;;;;;;;78.87;32.80;;;;;;;2.05;83.15;101744.63;1708307;81;27534;-76
2020/12/19 07:36:55;;;;;;;80.07;34.00;;;;;;;2.07;83.08;101738.77;1730956;81;25759;-77
2020/12/19 07:39:24;;;;;;;84.50;32.80;;;;;;;2.11;83.10;101736.28;1715782;80;25763;-76
2020/12/19 07:42:10;;;;;;;81.67;33.15;;;;;;;2.14;83.00;101738.69;1734635;81;25708;-76
2020/12/19 07:44:39;;;;;;;84.77;35.90;;;;;;;2.14;82.99;101740.02;1742816;81;25907;-77
2020/12/19 07:47:10;;;;;;;82.07;33.07;;;;;;;2.11;82.90;101738.92;1744234;81;28256;-77
2020/12/19 07:49:48;;;;;;;72.95;33.13;;;;;;;2.08;82.91;101741.30;1721146;81;25726;-77
2020/12/19 07:52:26;;;;;;;72.03;33.63;;;;;;;2.07;83.13;101742.26;1729215;80;25824;-77
2020/12/19 07:55:03;;;;;;;74.25;34.20;;;;;;;2.08;83.19;101745.25;1737008;80;25837;-77
2020/12/19 07:57:33;;;;;;;79.97;33.80;;;;;;;2.08;83.16;101749.69;1729138;81;25905;-77
2020/12/19 08:00:09;;;;;;;83.17;36.03;;;;;;;2.11;83.13;101746.84;1799712;77;25678;-76
2020/12/19 08:02:37;;;;;;;85.25;33.00;;;;;;;2.07;83.33;101740.94;1770309;79;25750;-77
2020/12/19 08:05:05;;;;;;;83.40;34.98;;;;;;;2.09;83.29;101729.78;1746538;79;27300;-76
2020/12/19 08:07:32;;;;;;;78.75;34.35;;;;;;;2.10;83.34;101728.81;1748624;80;25951;-76
2020/12/19 08:10:10;;;;;;;71.40;31.60;;;;;;;2.14;83.39;101730.77;1683620;82;25919;-77
2020/12/19 08:12:39;;;;;;;73.17;30.88;;;;;;;2.15;83.36;101725.39;1715980;80;25709;-76
2020/12/19 08:15:10;;;;;;;69.70;32.65;;;;;;;2.16;83.38;101719.64;1736019;80;25889;-77
2020/12/19 08:17:51;;;;;;;;;;;;;;;2.19;83.51;101720.73;1751051;80;27684;-77
2020/12/19 08:20:29;;;;;;;64.92;29.50;;;;;;;2.22;83.57;101717.39;1739177;80;26087;-76
2020/12/19 08:23:00;;;;;;;69.25;32.05;;;;;;;2.22;83.62;101720.53;1723077;82;26118;-76
2020/12/19 08:25:27;;;;;;;72.92;29.80;;;;;;;2.23;83.55;101716.45;1739618;80;26024;-77
2020/12/19 08:27:55;;;;;;;81.08;32.83;;;;;;;2.24;83.60;101722.13;1693761;82;26145;-77
2020/12/19 08:30:29;;;;;;;78.12;33.78;;;;;;;2.26;83.62;101727.30;1717597;80;27635;-77
2020/12/19 08:33:07;;;;;;;78.70;33.58;;;;;;;2.28;83.70;101727.56;1746905;80;25849;-77
2020/12/19 08:35:43;;;;;;;72.58;33.92;;;;;;;2.29;83.70;101721.77;1714879;82;25791;-76
2020/12/19 08:38:24;;;;;;;75.12;35.15;;;;;;;2.34;83.83;101727.60;1744274;80;25339;-76
2020/12/19 08:40:56;;;;;;;;;;;;;;;2.36;83.76;101719.09;1710058;80;25835;-76
2020/12/19 08:43:39;;;;;;;81.50;33.63;;;;;;;2.37;83.63;101717.30;1721539;80;28298;-77
2020/12/19 08:46:09;;;;;;;72.60;31.57;;;;;;;2.35;83.69;101716.09;1739969;80;25831;-76
2020/12/19 08:48:38;;;;;;;79.20;35.10;;;;;;;2.32;83.56;101723.75;1670765;82;25887;-77
2020/12/19 08:51:12;;;;;;;83.10;35.55;;;;;;;2.31;83.59;101721.19;1693640;82;26526;-77
2020/12/19 08:53:39;;;;;;;85.80;38.55;;;;;;;2.30;83.64;101720.84;1692228;82;25897;-76
2020/12/19 08:56:15;;;;;;;94.40;39.88;;;;;;;2.29;83.72;101717.81;1683109;83;28510;-77
2020/12/19 08:58:57;;;;;;;84.47;36.53;;;;;;;2.31;83.73;101719.41;1649631;84;25997;-77
2020/12/19 09:01:24;;;;;;;81.70;37.70;;;;;;;2.33;83.78;101718.00;1683008;83;25914;-76
2020/12/19 09:03:54;;;;;;;82.70;36.23;;;;;;;2.37;84.00;101715.97;1700204;82;26034;-77
2020/12/19 09:06:21;;;;;;;144.40;65.47;;;;;;;2.40;83.84;101713.09;1671308;84;26121;-77
2020/12/19 09:08:49;;;;;;;79.97;37.15;;;;;;;2.37;83.66;101724.76;1642321;85;28461;-77
2020/12/19 09:11:29;;;;;;;77.90;34.48;;;;;;;2.33;83.57;101723.28;1611991;86;26436;-77
2020/12/19 09:14:12;;;;;;;81.60;38.80;;;;;;;2.33;83.50;101729.39;1644136;84;25999;-77
2020/12/19 09:16:51;;;;;;;82.42;38.92;;;;;;;2.33;83.50;101729.39;1675224;84;25845;-77
2020/12/19 09:19:20;;;;;;;69.85;34.40;;;;;;;2.33;83.71;101721.46;1633466;84;25885;-77
2020/12/19 09:22:03;;;;;;;70.25;33.20;;;;;;;2.35;83.68;101716.09;1650068;84;27544;-77
2020/12/19 09:24:30;;;;;;;73.50;40.63;;;;;;;2.33;83.57;101716.17;1629850;86;25848;-78
2020/12/19 09:26:58;;;;;;;64.30;31.20;;;;;;;2.30;83.57;101719.52;1679749;84;25778;-77
2020/12/19 09:29:25;;;;;;;58.00;29.48;;;;;;;2.30;83.54;101722.16;1607590;84;25774;-77
2020/12/19 09:31:53;;;;;;;51.77;28.12;;;;;;;2.28;83.53;101724.92;1650945;84;25883;-77
2020/12/19 09:34:20;;;;;;;64.87;32.45;;;;;;;2.29;83.45;101725.27;1650332;86;28169;-77
2020/12/19 09:36:49;;;;;;;58.38;29.70;;;;;;;2.27;83.37;101719.25;1672201;84;26119;-78
2020/12/19 09:39:16;;;;;;;52.62;28.00;;;;;;;2.24;83.31;101717.30;1603315;84;25818;-77
2020/12/19 09:41:43;;;;;;;55.35;26.48;;;;;;;2.23;83.24;101716.45;1651515;84;25758;-78
2020/12/19 09:44:11;;;;;;;52.33;26.50;;;;;;;2.21;83.21;101718.36;1652748;84;25928;-77
2020/12/19 09:46:38;;;;;;;55.55;27.07;;;;;;;2.20;83.18;101717.97;1678736;84;27537;-77
2020/12/19 09:49:05;;;;;;;59.48;28.70;;;;;;;2.18;83.36;101720.38;1604668;84;25808;-77
2020/12/19 09:51:33;;;;;;;59.38;27.95;;;;;;;2.16;83.32;101720.96;1634303;84;25358;-77
2020/12/19 09:54:00;;;;;;;56.42;27.00;;;;;;;2.16;83.36;101714.35;1649909;84;26665;-77
2020/12/19 09:56:28;;;;;;;56.53;28.73;;;;;;;2.19;83.49;101720.73;1648553;84;25841;-76
2020/12/19 09:58:55;;;;;;;52.95;26.20;;;;;;;2.20;83.54;101714.01;1646934;83;26730;-79
2020/12/19 10:01:23;;;;;;;51.05;27.05;;;;;;;2.22;83.44;101708.14;1711905;82;26443;-77
2020/12/19 10:03:50;;;;;;;50.17;25.75;;;;;;;2.20;83.36;101711.36;1698475;82;25901;-77
2020/12/19 10:06:18;;;;;;;64.30;34.63;;;;;;;2.17;83.37;101707.63;1706062;82;25640;-77
2020/12/19 10:08:45;;;;;;;73.37;40.05;;;;;;;2.14;83.41;101711.80;1674523;83;26151;-77
2020/12/19 10:11:12;;;;;;;68.12;36.25;;;;;;;2.12;83.53;101708.88;1717123;82;27633;-77
2020/12/19 10:13:40;;;;;;;63.42;30.12;;;;;;;2.10;83.52;101704.17;1711205;82;25862;-77
2020/12/19 10:16:07;;;;;;;56.37;27.40;;;;;;;2.10;83.66;101709.46;1700436;82;25801;-77
2020/12/19 10:18:34;;;;;;;61.85;30.92;;;;;;;2.15;83.78;101706.89;1671404;84;25517;-77
2020/12/19 10:21:07;;;;;;;61.65;27.40;;;;;;;2.17;83.79;101708.95;1663992;84;26236;-77
2020/12/19 10:23:35;;;;;;;59.30;31.00;;;;;;;2.18;83.77;101698.73;1694257;83;27309;-77
2020/12/19 10:26:02;;;;;;;67.35;33.95;;;;;;;2.18;83.78;101696.09;1698633;83;25784;-77
2020/12/19 10:28:30;;;;;;;57.65;29.70;;;;;;;2.19;83.70;101701.76;1624829;84;25880;-77
2020/12/19 10:30:57;;;;;;;58.70;29.55;;;;;;;2.19;83.78;101702.23;1650974;83;25859;-77
2020/12/19 10:33:28;;;;;;;57.58;29.15;;;;;;;2.24;83.91;101700.12;1673792;83;25970;-77
2020/12/19 10:35:56;;;;;;;57.85;27.10;;;;;;;2.27;83.86;101706.03;1686141;83;28348;-78
2020/12/19 10:38:23;;;;;;;58.20;29.75;;;;;;;2.28;83.85;101701.13;1667780;84;26096;-78
2020/12/19 10:40:51;;;;;;;61.23;32.93;;;;;;;2.29;83.86;101704.13;1645555;84;26184;-78
2020/12/19 10:43:19;;;;;;;60.83;31.00;;;;;;;2.33;83.95;101698.17;1687974;83;25909;-77
2020/12/19 10:45:46;;;;;;;67.30;31.75;;;;;;;2.35;83.89;101706.34;1669901;83;26141;-78
2020/12/19 10:48:14;;;;;;;62.95;32.30;;;;;;;2.39;83.91;101696.88;1631891;83;27546;-77
2020/12/19 10:50:41;;;;;;;55.40;26.65;;;;;;;2.40;83.93;101690.16;1654423;84;26249;-78
2020/12/19 10:53:09;;;;;;;56.70;27.65;;;;;;;2.42;83.82;101696.17;1643182;83;26074;-78
2020/12/19 10:55:38;;;;;;;45.70;25.37;;;;;;;2.41;83.82;101687.89;1673796;83;25811;-78
2020/12/19 10:58:05;;;;;;;51.90;30.27;;;;;;;2.39;83.68;101691.13;1634373;83;25834;-77
2020/12/19 11:00:32;;;;;;;48.52;24.87;;;;;;;2.40;83.65;101685.33;1677122;83;27538;-77
2020/12/19 11:03:00;;;;;;;54.45;25.72;;;;;;;2.38;83.75;101689.41;1660984;84;25886;-77
2020/12/19 11:05:27;;;;;;;52.43;25.02;;;;;;;2.37;83.76;101680.28;1698744;83;26100;-77
2020/12/19 11:07:55;;;;;;;55.23;26.37;;;;;;;2.35;83.74;101677.75;1674091;83;25875;-77
2020/12/19 11:10:23;;;;;;;48.45;24.90;;;;;;;2.31;83.66;101681.07;1635458;84;25633;-78
2020/12/19 11:12:50;;;;;;;48.80;24.47;;;;;;;2.28;83.56;101680.45;1660468;84;28259;-78
2020/12/19 11:15:18;;;;;;;57.38;28.45;;;;;;;2.25;83.64;101679.33;1645390;85;26267;-78
2020/12/19 11:17:47;;;;;;;63.05;29.45;;;;;;;2.26;83.85;101675.28;1604574;86;26531;-78
2020/12/19 11:20:15;;;;;;;61.15;28.95;;;;;;;2.30;84.04;101675.43;1641666;85;26175;-78
2020/12/19 11:22:43;;;;;;;53.00;25.80;;;;;;;2.31;83.97;101667.00;1640042;85;26172;-78
2020/12/19 11:25:10;;;;;;;54.03;25.62;;;;;;;2.30;84.01;101660.03;1657676;85;28498;-78
2020/12/19 11:27:38;;;;;;;48.87;26.37;;;;;;;2.30;83.99;101664.00;1623959;86;25895;-77
2020/12/19 11:30:07;;;;;;;46.88;23.45;;;;;;;2.30;83.98;101665.32;1659780;85;25735;-78